Time;durP1;ratioP1;P1;durP2;ratioP2;P2;SDS_P1;SDS_P2;PMS_P1;PMS_P2;Temp;Humidity;BMP_temperature;BMP_pressure;BME280_temperature;BME280_humidity;BME280_pressure;Samples;Min_cycle;Max_cycle;Signal;HPM_P1;HPM_P2
2024/04/25 00:01:44;;;;;;;;;;;;;;;-146.42;100.00;66673.91;5346679;26;19965;-82
2024/04/25 00:04:11;;;;;;;;;;;;;;;-146.42;100.00;66673.91;5346700;26;19930;-81
2024/04/25 00:06:37;;;;;;;;;;;;;;;-146.42;100.00;66673.91;5346838;26;19930;-82
2024/04/25 00:09:03;;;;;;;;;;;;;;;-146.42;100.00;66673.91;5375799;26;19941;-81
2024/04/25 00:11:28;;;;;;;;;;;;;;;-146.42;100.00;66673.91;5346790;26;19936;-82
2024/04/25 00:13:54;;;;;;;;;;;;;;;-146.42;100.00;66673.91;5346543;26;19939;-82
2024/04/25 00:16:20;;;;;;;;;;;;;;;-146.42;100.00;66673.91;5375482;26;20372;-82
2024/04/25 00:18:46;;;;;;;;;;;;;;;-146.42;100.00;66673.91;5317763;26;19929;-82
2024/04/25 00:21:11;;;;;;;;;;;;;;;-146.42;100.00;66673.91;5375702;26;19940;-82
2024/04/25 00:23:37;;;;;;;;;;;;;;;-146.42;100.00;66673.91;5346343;26;19937;-81
2024/04/25 00:26:02;;;;;;;;;;;;;;;-146.42;100.00;66673.91;5346363;26;19952;-81
2024/04/25 00:28:28;;;;;;;;;;;;;;;-146.42;100.00;66673.91;5346565;26;20331;-81
2024/04/25 00:30:54;;;;;;;;;;;;;;;-146.42;100.00;66673.91;5375354;26;19958;-81
2024/04/25 00:33:20;;;;;;;;;;;;;;;-146.42;100.00;66673.91;5346699;26;20001;-81
2024/04/25 00:35:46;;;;;;;;;;;;;;;-146.42;100.00;66673.91;5348041;26;20264;-82
2024/04/25 00:38:13;;;;;;;;;;;;;;;-146.42;100.00;66673.91;5346765;26;19942;-81
2024/04/25 00:40:38;;;;;;;;;;;;;;;-146.42;100.00;66673.91;5346432;26;19941;-81
2024/04/25 00:43:04;;;;;;;;;;;;;;;-146.42;100.00;66673.91;5346408;26;20438;-82
2024/04/25 00:45:32;;;;;;;;;;;;;;;-146.42;100.00;66673.91;5346654;26;19930;-82
2024/04/25 00:47:58;;;;;;;;;;;;;;;-146.42;100.00;66673.91;5346279;26;19965;-82
2024/04/25 00:50:24;;;;;;;;;;;;;;;-146.42;100.00;66673.91;5346684;26;19930;-83
2024/04/25 00:52:49;;;;;;;;;;;;;;;-146.42;100.00;66673.91;5344512;26;19937;-82
2024/04/25 00:55:15;;;;;;;;;;;;;;;-146.42;100.00;66673.91;5317358;26;19930;-83
2024/04/25 00:57:40;;;;;;;;;;;;;;;-146.42;100.00;66673.91;5346112;26;20284;-82
2024/04/25 01:00:06;;;;;;;;;;;;;;;-146.42;100.00;66673.91;5346086;26;19930;-82
2024/04/25 01:02:32;;;;;;;;;;;;;;;-146.42;100.00;66673.91;5375235;26;20000;-82
2024/04/25 01:04:58;;;;;;;;;;;;;;;-146.42;100.00;66673.91;5346028;26;19958;-82
2024/04/25 01:07:24;;;;;;;;;;;;;;;-146.42;100.00;66673.91;5317130;26;20377;-83
2024/04/25 01:09:49;;;;;;;;;;;;;;;-146.42;100.00;66673.91;5345836;26;19930;-84
2024/04/25 01:12:18;;;;;;;;;;;;;;;-146.42;100.00;66673.91;5345893;26;19931;-82
2024/04/25 01:14:44;;;;;;;;;;;;;;;-146.42;100.00;66673.91;5345707;26;19930;-82
2024/04/25 01:17:09;;;;;;;;;;;;;;;-146.42;100.00;66673.91;5317110;26;19937;-82
2024/04/25 01:19:35;;;;;;;;;;;;;;;-146.42;100.00;66673.91;5346025;26;19938;-82
2024/04/25 01:22:00;;;;;;;;;;;;;;;-146.42;100.00;66673.91;5345934;26;19930;-82
2024/04/25 01:24:29;;;;;;;;;;;;;;;-146.42;100.00;66673.91;5374644;26;20361;-82
2024/04/25 01:26:55;;;;;;;;;;;;;;;-146.42;100.00;66673.91;5346358;26;19930;-82
2024/04/25 01:29:20;;;;;;;;;;;;;;;-146.42;100.00;66673.91;5316635;26;19930;-83
2024/04/25 01:31:46;;;;;;;;;;;;;;;-146.42;100.00;66673.91;5345709;26;19930;-82
2024/04/25 01:34:12;;;;;;;;;;;;;;;-146.42;100.00;66673.91;5345826;26;19930;-81
2024/04/25 01:36:41;;;;;;;;;;;;;;;-146.42;100.00;66673.91;5374594;26;19962;-81
2024/04/25 01:39:07;;;;;;;;;;;;;;;-146.42;100.00;66673.91;5346194;26;19930;-82
2024/04/25 01:41:32;;;;;;;;;;;;;;;-146.42;100.00;66673.91;5345679;26;19938;-84
2024/04/25 01:43:58;;;;;;;;;;;;;;;-146.42;100.00;66673.91;5345497;26;19931;-81
2024/04/25 01:46:23;;;;;;;;;;;;;;;-146.42;100.00;66673.91;5345146;26;20464;-82
2024/04/25 01:48:49;;;;;;;;;;;;;;;-146.42;100.00;66673.91;5345594;26;19930;-82
2024/04/25 01:51:15;;;;;;;;;;;;;;;-146.42;100.00;66673.91;5316572;26;19930;-82
2024/04/25 01:53:40;;;;;;;;;;;;;;;-146.42;100.00;66673.91;5345095;26;20447;-82
2024/04/25 01:56:06;;;;;;;;;;;;;;;-146.42;100.00;66673.91;5345015;26;19942;-82
2024/04/25 01:58:31;;;;;;;;;;;;;;;-146.42;100.00;66673.91;5316320;26;19930;-82
2024/04/25 02:00:57;;;;;;;;;;;;;;;-146.42;100.00;66673.91;5345421;26;19938;-81
2024/04/25 02:03:22;;;;;;;;;;;;;;;-146.42;100.00;66673.91;5346108;26;20327;-82
2024/04/25 02:05:48;;;;;;;;;;;;;;;-146.42;100.00;66673.91;5377644;26;20384;-82
2024/04/25 02:08:13;;;;;;;;;;;;;;;-146.42;100.00;66673.91;5320214;26;19938;-85
2024/04/25 02:10:39;;;;;;;;;;;;;;;-146.42;100.00;66673.91;5376787;26;20384;-82
2024/04/25 02:13:05;;;;;;;;;;;;;;;-146.42;100.00;66673.91;5348314;26;19942;-82
2024/04/25 02:15:30;;;;;;;;;;;;;;;-146.42;100.00;66673.91;5319384;26;19930;-82
2024/04/25 02:17:56;;;;;;;;;;;;;;;-146.42;100.00;66673.91;5348709;26;19930;-81
2024/04/25 02:25:49;;;;;;;;;;;;;;;-146.42;100.00;66673.91;5352252;26;20442;-81
2024/04/25 02:28:15;;;;;;;;;;;;;;;-146.42;100.00;66673.91;5377356;26;19934;-81
2024/04/25 02:30:40;;;;;;;;;;;;;;;-146.42;100.00;66673.91;5319644;26;19930;-81
2024/04/25 02:33:06;;;;;;;;;;;;;;;-146.42;100.00;66673.91;5377304;26;20388;-81
2024/04/25 02:35:31;;;;;;;;;;;;;;;-146.42;100.00;66673.91;5348309;26;20008;-81
2024/04/25 02:37:57;;;;;;;;;;;;;;;-146.42;100.00;66673.91;5348481;26;20273;-81
2024/04/25 02:40:22;;;;;;;;;;;;;;;-146.42;100.00;66673.91;5348004;26;19930;-81
2024/04/25 02:42:48;;;;;;;;;;;;;;;-146.42;100.00;66673.91;5347961;26;20376;-81
2024/04/25 02:45:13;;;;;;;;;;;;;;;-146.42;100.00;66673.91;5348736;26;19930;-85
2024/04/25 02:47:39;;;;;;;;;;;;;;;-146.42;100.00;66673.91;5319187;26;20260;-81
2024/04/25 02:50:04;;;;;;;;;;;;;;;-146.42;100.00;66673.91;5347907;26;19938;-82
2024/04/25 02:52:30;;;;;;;;;;;;;;;-146.42;100.00;66673.91;5376936;26;19937;-81
2024/04/25 02:54:56;;;;;;;;;;;;;;;-146.42;100.00;66673.91;5348156;26;19931;-82
2024/04/25 02:57:22;;;;;;;;;;;;;;;-146.42;100.00;66673.91;5347798;26;19929;-82
2024/04/25 02:59:47;;;;;;;;;;;;;;;-146.42;100.00;66673.91;5318893;26;19937;-82
2024/04/25 03:02:13;;;;;;;;;;;;;;;-146.42;100.00;66673.91;5347789;26;19930;-82
2024/04/25 03:04:38;;;;;;;;;;;;;;;-146.42;100.00;66673.91;5347590;26;20047;-81
2024/04/25 03:07:04;;;;;;;;;;;;;;;-146.42;100.00;66673.91;5318776;26;19930;-81
2024/04/25 03:09:29;;;;;;;;;;;;;;;-146.42;100.00;66673.91;5347776;26;19937;-81
2024/04/25 03:11:55;;;;;;;;;;;;;;;-146.42;100.00;66673.91;5347443;26;20016;-81
2024/04/25 03:14:20;;;;;;;;;;;;;;;-146.42;100.00;66673.91;5346658;26;19930;-82
2024/04/25 03:16:46;;;;;;;;;;;;;;;-146.42;100.00;66673.91;5347017;26;19930;-81
2024/04/25 03:19:11;;;;;;;;;;;;;;;-146.42;100.00;66673.91;5376559;26;19941;-81
2024/04/25 03:21:37;;;;;;;;;;;;;;;-146.42;100.00;66673.91;5318651;26;20423;-81
2024/04/25 03:24:02;;;;;;;;;;;;;;;-146.42;100.00;66673.91;5347375;26;19954;-82
2024/04/25 03:26:28;;;;;;;;;;;;;;;-146.42;100.00;66673.91;5347608;26;19962;-81
2024/04/25 03:28:53;;;;;;;;;;;;;;;-146.42;100.00;66673.91;5347172;26;20276;-81
2024/04/25 03:31:19;;;;;;;;;;;;;;;-146.42;100.00;66673.91;5318723;26;19937;-81
2024/04/25 03:33:44;;;;;;;;;;;;;;;-146.42;100.00;66673.91;5347064;26;20452;-81
2024/04/25 03:36:10;;;;;;;;;;;;;;;-146.42;100.00;66673.91;5377176;26;19937;-83
2024/04/25 03:38:35;;;;;;;;;;;;;;;-146.42;100.00;66673.91;5348893;26;19938;-83
2024/04/25 03:41:01;;;;;;;;;;;;;;;-146.42;100.00;66673.91;5376425;26;20257;-81
2024/04/25 03:43:26;;;;;;;;;;;;;;;-146.42;100.00;66673.91;5318265;26;19930;-81
2024/04/25 03:45:52;;;;;;;;;;;;;;;-146.42;100.00;66673.91;5347052;26;19930;-81
2024/04/25 03:48:17;;;;;;;;;;;;;;;-146.42;100.00;66673.91;5318548;26;20257;-81
2024/04/25 03:50:43;;;;;;;;;;;;;;;-146.42;100.00;66673.91;5376207;26;20435;-82
2024/04/25 03:53:08;;;;;;;;;;;;;;;-146.42;100.00;66673.91;5346965;26;19930;-81
2024/04/25 03:55:34;;;;;;;;;;;;;;;-146.42;100.00;66673.91;5347012;26;19937;-81
2024/04/25 03:57:59;;;;;;;;;;;;;;;-146.42;100.00;66673.91;5346830;26;20454;-81
2024/04/25 04:00:25;;;;;;;;;;;;;;;-146.42;100.00;66673.91;5346861;26;19930;-82
2024/04/25 04:02:51;;;;;;;;;;;;;;;-146.42;100.00;66673.91;5347136;26;20000;-83
2024/04/25 04:05:17;;;;;;;;;;;;;;;-146.42;100.00;66673.91;5318271;26;20376;-81
2024/04/25 04:07:43;;;;;;;;;;;;;;;-146.42;100.00;66673.91;5318122;26;19930;-81
2024/04/25 04:10:09;;;;;;;;;;;;;;;-146.42;100.00;66673.91;5346821;26;19930;-81
2024/04/25 04:12:34;;;;;;;;;;;;;;;-146.42;100.00;66673.91;5347108;26;20249;-81
2024/04/25 04:14:59;;;;;;;;;;;;;;;-146.42;100.00;66673.91;5346610;26;20419;-82
2024/04/25 04:17:25;;;;;;;;;;;;;;;-146.42;100.00;66673.91;5346565;26;19937;-82
2024/04/25 04:19:50;;;;;;;;;;;;;;;-146.42;100.00;66673.91;5346532;26;19938;-81
2024/04/25 04:22:16;;;;;;;;;;;;;;;-146.42;100.00;66673.91;5346740;26;20281;-81
2024/04/25 04:24:42;;;;;;;;;;;;;;;-146.42;100.00;66673.91;5376046;26;19941;-81
2024/04/25 04:27:08;;;;;;;;;;;;;;;-146.42;100.00;66673.91;5346461;26;19929;-82
2024/04/25 04:29:34;;;;;;;;;;;;;;;-146.42;100.00;66673.91;5346553;26;19937;-81
2024/04/25 04:31:59;;;;;;;;;;;;;;;-146.42;100.00;66673.91;5317637;26;19930;-81
2024/04/25 04:34:25;;;;;;;;;;;;;;;-146.42;100.00;66673.91;5375912;26;19930;-81
2024/04/25 04:36:50;;;;;;;;;;;;;;;-146.42;100.00;66673.91;5346624;26;20368;-81
2024/04/25 04:39:16;;;;;;;;;;;;;;;-146.42;100.00;66673.91;5346262;26;19936;-81
2024/04/25 04:41:41;;;;;;;;;;;;;;;-146.42;100.00;66673.91;5346166;26;19937;-81
2024/04/25 04:44:07;;;;;;;;;;;;;;;-146.42;100.00;66673.91;5317568;26;19937;-81
2024/04/25 04:46:33;;;;;;;;;;;;;;;-146.42;100.00;66673.91;5375693;26;20253;-82
2024/04/25 04:48:59;;;;;;;;;;;;;;;-146.42;100.00;66673.91;5346303;26;20000;-81
2024/04/25 04:51:24;;;;;;;;;;;;;;;-146.42;100.00;66673.91;5375275;26;19941;-82
2024/04/25 04:53:50;;;;;;;;;;;;;;;-146.42;100.00;66673.91;5317398;26;20345;-82
2024/04/25 04:56:17;;;;;;;;;;;;;;;-146.42;100.00;66673.91;5346101;26;20000;-82
2024/04/25 04:58:42;;;;;;;;;;;;;;;-146.42;100.00;66673.91;5346087;26;19954;-81
2024/04/25 05:01:08;;;;;;;;;;;;;;;-146.42;100.00;66673.91;5345893;26;19941;-80
2024/04/25 05:03:34;;;;;;;;;;;;;;;-146.42;100.00;66673.91;5346219;26;19942;-81
2024/04/25 05:06:00;;;;;;;;;;;;;;;-146.42;100.00;66673.91;5345952;26;19937;-82
2024/04/25 05:08:27;;;;;;;;;;;;;;;-146.42;100.00;66673.91;5345853;26;19933;-82
2024/04/25 05:10:52;;;;;;;;;;;;;;;-146.42;100.00;66673.91;5345049;26;19937;-81
2024/04/25 05:13:19;;;;;;;;;;;;;;;-146.42;100.00;66673.91;5345840;26;19930;-81
2024/04/25 05:15:44;;;;;;;;;;;;;;;-146.42;100.00;66673.91;5346088;26;19930;-81
2024/04/25 05:18:10;;;;;;;;;;;;;;;-146.42;100.00;66673.91;5345610;26;20365;-81
2024/04/25 05:20:35;;;;;;;;;;;;;;;-146.42;100.00;66673.91;5374496;26;19930;-81
2024/04/25 05:23:01;;;;;;;;;;;;;;;-146.42;100.00;66673.91;5317432;26;19937;-82
2024/04/25 05:25:26;;;;;;;;;;;;;;;-146.42;100.00;66673.91;5374583;26;19969;-82
2024/04/25 05:27:52;;;;;;;;;;;;;;;-146.42;100.00;66673.91;5346170;26;19942;-82
2024/04/25 05:30:20;;;;;;;;;;;;;;;-146.42;100.00;66673.91;5374808;26;20428;-81
2024/04/25 05:32:45;;;;;;;;;;;;;;;-146.42;100.00;66673.91;5318076;26;20376;-82
2024/04/25 05:35:11;;;;;;;;;;;;;;;-146.42;100.00;66673.91;5345441;26;19930;-81
2024/04/25 05:37:36;;;;;;;;;;;;;;;-146.42;100.00;66673.91;5316673;26;20364;-83
2024/04/25 05:40:02;;;;;;;;;;;;;;;-146.42;100.00;66673.91;5348562;26;19930;-81
2024/04/25 05:42:27;;;;;;;;;;;;;;;-146.42;100.00;66673.91;5348767;26;19930;-81
2024/04/25 05:44:53;;;;;;;;;;;;;;;-146.42;100.00;66673.91;5377998;26;19934;-81
2024/04/25 05:47:20;;;;;;;;;;;;;;;-146.42;100.00;66673.91;5348787;26;19930;-82
2024/04/25 05:49:45;;;;;;;;;;;;;;;-146.42;100.00;66673.91;5377797;26;19930;-81
2024/04/25 05:52:12;;;;;;;;;;;;;;;-146.42;100.00;66673.91;5348791;26;20000;-81
2024/04/25 05:54:38;;;;;;;;;;;;;;;-146.42;100.00;66673.91;5377811;26;19937;-81
2024/04/25 05:57:03;;;;;;;;;;;;;;;-146.42;100.00;66673.91;5350386;26;19930;-82
2024/04/25 05:59:29;;;;;;;;;;;;;;;-146.42;100.00;66673.91;5348814;26;20282;-82
2024/04/25 06:01:54;;;;;;;;;;;;;;;-146.42;100.00;66673.91;5348421;26;20360;-82
2024/04/25 06:04:20;;;;;;;;;;;;;;;-146.42;100.00;66673.91;5319634;26;20341;-81
2024/04/25 06:06:45;;;;;;;;;;;;;;;-146.42;100.00;66673.91;5378340;26;19930;-81
2024/04/25 06:09:11;;;;;;;;;;;;;;;-146.42;100.00;66673.91;5319665;26;20000;-82
2024/04/25 06:11:37;;;;;;;;;;;;;;;-146.42;100.00;66673.91;5377722;26;19934;-82
2024/04/25 06:14:02;;;;;;;;;;;;;;;-146.42;100.00;66673.91;5348570;26;19930;-82
2024/04/25 06:16:28;;;;;;;;;;;;;;;-146.42;100.00;66673.91;5348282;26;19942;-82
2024/04/25 06:18:54;;;;;;;;;;;;;;;-146.42;100.00;66673.91;5320159;26;19930;-82
2024/04/25 06:21:20;;;;;;;;;;;;;;;-146.42;100.00;66673.91;5348130;26;19989;-81
2024/04/25 06:23:45;;;;;;;;;;;;;;;-146.42;100.00;66673.91;5348139;26;20357;-82
2024/04/25 06:26:11;;;;;;;;;;;;;;;-146.42;100.00;66673.91;5348427;26;19930;-81
2024/04/25 06:28:38;;;;;;;;;;;;;;;-146.42;100.00;66673.91;5348671;26;19938;-82
2024/04/25 06:31:04;;;;;;;;;;;;;;;-146.42;100.00;66673.91;5348635;26;19930;-81
2024/04/25 06:33:30;;;;;;;;;;;;;;;-146.42;100.00;66673.91;5319479;26;19958;-81
2024/04/25 06:35:55;;;;;;;;;;;;;;;-146.42;100.00;66673.91;5348092;26;19938;-82
2024/04/25 06:38:21;;;;;;;;;;;;;;;-146.42;100.00;66673.91;5347873;26;19930;-81
2024/04/25 06:40:46;;;;;;;;;;;;;;;-146.42;100.00;66673.91;5377186;26;19999;-81
2024/04/25 06:43:12;;;;;;;;;;;;;;;-146.42;100.00;66673.91;5355973;26;19930;-80
2024/04/25 06:45:40;;;;;;;;;;;;;;;-146.42;100.00;66673.91;5357377;26;19938;-81
2024/04/25 06:48:08;;;;;;;;;;;;;;;-146.42;100.00;66673.91;5348903;26;19936;-81
2024/04/25 06:50:34;;;;;;;;;;;;;;;-146.42;100.00;66673.91;5348371;26;19937;-82
2024/04/25 06:52:59;;;;;;;;;;;;;;;-146.42;100.00;66673.91;5347951;26;19934;-82
2024/04/25 06:55:25;;;;;;;;;;;;;;;-146.42;100.00;66673.91;5319036;26;20000;-81
2024/04/25 06:57:50;;;;;;;;;;;;;;;-146.42;100.00;66673.91;5347996;26;19936;-81
2024/04/25 07:00:16;;;;;;;;;;;;;;;-146.42;100.00;66673.91;5347699;26;19976;-81
2024/04/25 07:02:42;;;;;;;;;;;;;;;-146.42;100.00;66673.91;5349551;26;19930;-81
2024/04/25 07:05:09;;;;;;;;;;;;;;;-146.42;100.00;66673.91;5377038;26;19942;-81
2024/04/25 07:07:35;;;;;;;;;;;;;;;-146.42;100.00;66673.91;5348244;26;19938;-82
2024/04/25 07:10:01;;;;;;;;;;;;;;;-146.42;100.00;66673.91;5347672;26;19937;-83
2024/04/25 07:12:30;;;;;;;;;;;;;;;-146.42;100.00;66673.91;5376698;26;19941;-82
2024/04/25 07:14:56;;;;;;;;;;;;;;;-146.42;100.00;66673.91;5348459;26;19937;-82
2024/04/25 07:17:22;;;;;;;;;;;;;;;-146.42;100.00;66673.91;5347622;26;19993;-81
2024/04/25 07:19:49;;;;;;;;;;;;;;;-146.42;100.00;66673.91;5347358;26;20272;-81
2024/04/25 07:22:15;;;;;;;;;;;;;;;-146.42;100.00;66673.91;5348248;26;20392;-82
2024/04/25 07:24:41;;;;;;;;;;;;;;;-146.42;100.00;66673.91;5318909;26;19930;-83
2024/04/25 07:27:07;;;;;;;;;;;;;;;-146.42;100.00;66673.91;5347353;26;19954;-81
2024/04/25 07:29:32;;;;;;;;;;;;;;;-146.42;100.00;66673.91;5347300;26;19930;-81
2024/04/25 07:31:58;;;;;;;;;;;;;;;-146.42;100.00;66673.91;5347367;26;19930;-82
2024/04/25 07:34:26;;;;;;;;;;;;;;;-146.42;100.00;66673.91;5347589;26;19929;-81
2024/04/25 07:36:59;;;;;;;;;;;;;;;-146.42;100.00;66673.91;5321329;26;19930;-82
2024/04/25 07:39:25;;;;;;;;;;;;;;;-146.42;100.00;66673.91;5347746;26;19937;-81
2024/04/25 07:41:50;;;;;;;;;;;;;;;-146.42;100.00;66673.91;5347170;26;19930;-82
2024/04/25 07:44:16;;;;;;;;;;;;;;;-146.42;100.00;66673.91;5347542;26;20297;-82
2024/04/25 07:46:41;;;;;;;;;;;;;;;-146.42;100.00;66673.91;5347211;26;19930;-82
2024/04/25 07:49:08;;;;;;;;;;;;;;;-146.42;100.00;66673.91;5347191;26;19937;-81
2024/04/25 07:51:33;;;;;;;;;;;;;;;-146.42;100.00;66673.91;5376328;26;19958;-82
2024/04/25 07:53:59;;;;;;;;;;;;;;;-146.42;100.00;66673.91;5347149;26;19930;-82
2024/04/25 07:56:24;;;;;;;;;;;;;;;-146.42;100.00;66673.91;5347305;26;19930;-82
2024/04/25 07:58:50;;;;;;;;;;;;;;;-146.42;100.00;66673.91;5346943;26;20401;-82
2024/04/25 08:01:16;;;;;;;;;;;;;;;-146.42;100.00;66673.91;5346518;26;19930;-82
2024/04/25 08:03:42;;;;;;;;;;;;;;;-146.42;100.00;66673.91;5346993;26;20007;-82
2024/04/25 08:06:07;;;;;;;;;;;;;;;-146.42;100.00;66673.91;5376175;26;19930;-83
2024/04/25 08:08:33;;;;;;;;;;;;;;;-146.42;100.00;66673.91;5376034;26;19937;-83
2024/04/25 08:11:00;;;;;;;;;;;;;;;-146.42;100.00;66673.91;5376166;26;19930;-81
2024/04/25 08:13:25;;;;;;;;;;;;;;;-146.42;100.00;66673.91;5347487;26;19941;-82
2024/04/25 08:15:51;;;;;;;;;;;;;;;-146.42;100.00;66673.91;5318143;26;19934;-82
2024/04/25 08:18:16;;;;;;;;;;;;;;;-146.42;100.00;66673.91;5346719;26;19937;-81
2024/04/25 08:20:42;;;;;;;;;;;;;;;-146.42;100.00;66673.91;5317665;26;19930;-83
2024/04/25 08:23:07;;;;;;;;;;;;;;;-146.42;100.00;66673.91;5375200;26;19930;-83
2024/04/25 08:25:33;;;;;;;;;;;;;;;-146.42;100.00;66673.91;5346490;26;20405;-85
2024/04/25 08:27:58;;;;;;;;;;;;;;;-146.42;100.00;66673.91;5376021;26;19999;-84
2024/04/25 08:30:24;;;;;;;;;;;;;;;-146.42;100.00;66673.91;5346607;26;20261;-84
2024/04/25 08:32:50;;;;;;;;;;;;;;;-146.42;100.00;66673.91;5376745;26;19930;-84
2024/04/25 08:35:16;;;;;;;;;;;;;;;-146.42;100.00;66673.91;5346833;26;19930;-84
2024/04/25 08:37:41;;;;;;;;;;;;;;;-146.42;100.00;66673.91;5317784;26;20323;-85
2024/04/25 08:40:07;;;;;;;;;;;;;;;-146.42;100.00;66673.91;5375928;26;19938;-84
2024/04/25 08:42:33;;;;;;;;;;;;;;;-146.42;100.00;66673.91;5317623;26;20039;-83
2024/04/25 08:44:58;;;;;;;;;;;;;;;-146.42;100.00;66673.91;5346496;26;19962;-83
2024/04/25 08:47:24;;;;;;;;;;;;;;;-146.42;100.00;66673.91;5346312;26;19930;-84
2024/04/25 08:49:49;;;;;;;;;;;;;;;-146.42;100.00;66673.91;5317600;26;19941;-84
2024/04/25 08:52:15;;;;;;;;;;;;;;;-146.42;100.00;66673.91;5346253;26;19940;-84
2024/04/25 08:54:40;;;;;;;;;;;;;;;-146.42;100.00;66673.91;5346533;26;19930;-84
2024/04/25 08:57:06;;;;;;;;;;;;;;;-146.42;100.00;66673.91;5375496;26;19930;-83
2024/04/25 08:59:31;;;;;;;;;;;;;;;-146.42;100.00;66673.91;5348171;26;19938;-83
2024/04/25 09:01:58;;;;;;;;;;;;;;;-146.42;100.00;66673.91;5375638;26;19930;-84
2024/04/25 09:04:26;;;;;;;;;;;;;;;-146.42;100.00;66673.91;5347244;26;19947;-84
2024/04/25 09:06:52;;;;;;;;;;;;;;;-146.42;100.00;66673.91;5345972;26;20377;-84
2024/04/25 09:09:17;;;;;;;;;;;;;;;-146.42;100.00;66673.91;5345947;26;19977;-84
2024/04/25 09:11:43;;;;;;;;;;;;;;;-146.42;100.00;66673.91;5346296;26;20377;-84
2024/04/25 09:14:09;;;;;;;;;;;;;;;-146.42;100.00;66673.91;5377237;26;19938;-84
2024/04/25 09:16:36;;;;;;;;;;;;;;;-146.42;100.00;66673.91;5378366;26;20373;-83
2024/04/25 09:19:02;;;;;;;;;;;;;;;-146.42;100.00;66673.91;5349731;26;19962;-83
2024/04/25 09:21:27;;;;;;;;;;;;;;;-146.42;100.00;66673.91;5378228;26;19930;-84
2024/04/25 09:23:53;;;;;;;;;;;;;;;-146.42;100.00;66673.91;5349106;26;19930;-84
2024/04/25 09:26:18;;;;;;;;;;;;;;;-146.42;100.00;66673.91;5349017;26;20260;-84
2024/04/25 09:28:43;;;;;;;;;;;;;;;-146.42;100.00;66673.91;5326706;26;19937;-82
2024/04/25 09:31:09;;;;;;;;;;;;;;;-146.42;100.00;66673.91;5396223;26;19980;-84
2024/04/25 09:33:35;;;;;;;;;;;;;;;-146.42;100.00;66673.91;5351063;26;19930;-84
2024/04/25 09:36:00;;;;;;;;;;;;;;;-146.42;100.00;66673.91;5348942;26;20273;-84
2024/04/25 09:38:25;;;;;;;;;;;;;;;-146.42;100.00;66673.91;5378517;26;19930;-83
2024/04/25 09:40:51;;;;;;;;;;;;;;;-146.42;100.00;66673.91;5348634;26;19931;-83
2024/04/25 09:43:17;;;;;;;;;;;;;;;-146.42;100.00;66673.91;5348437;26;19930;-80
2024/04/25 09:45:43;;;;;;;;;;;;;;;-146.42;100.00;66673.91;5377437;26;19938;-82
2024/04/25 09:48:19;;;;;;;;;;;;;;;-146.42;100.00;66673.91;5348542;26;19938;-81
2024/04/25 09:50:49;;;;;;;;;;;;;;;-146.42;100.00;66673.91;5319838;26;19942;-83
2024/04/25 09:53:26;;;;;;;;;;;;;;;-146.42;100.00;66673.91;5377355;26;19930;-80
2024/04/25 09:55:51;;;;;;;;;;;;;;;-146.42;100.00;66673.91;5348511;26;20002;-79
2024/04/25 09:58:24;;;;;;;;;;;;;;;-146.42;100.00;66673.91;5378015;26;19942;-78
2024/04/25 10:00:50;;;;;;;;;;;;;;;-146.42;100.00;66673.91;5348564;26;19941;-80
2024/04/25 10:03:15;;;;;;;;;;;;;;;-146.42;100.00;66673.91;5378141;26;20361;-79
2024/04/25 10:05:41;;;;;;;;;;;;;;;-146.42;100.00;66673.91;5319577;26;19934;-79
2024/04/25 10:08:06;;;;;;;;;;;;;;;-146.42;100.00;66673.91;5348358;26;19930;-79
2024/04/25 10:10:32;;;;;;;;;;;;;;;-146.42;100.00;66673.91;5348075;26;19937;-79
2024/04/25 10:12:58;;;;;;;;;;;;;;;-146.42;100.00;66673.91;5377264;26;19937;-80
2024/04/25 10:15:27;;;;;;;;;;;;;;;-146.42;100.00;66673.91;5348695;26;19962;-79
2024/04/25 10:17:53;;;;;;;;;;;;;;;-146.42;100.00;66673.91;5377373;26;19938;-79
2024/04/25 10:20:19;;;;;;;;;;;;;;;-146.42;100.00;66673.91;5319102;26;19930;-79
2024/04/25 10:22:54;;;;;;;;;;;;;;;-146.42;100.00;66673.91;5348273;26;19934;-79
2024/04/25 10:25:21;;;;;;;;;;;;;;;-146.42;100.00;66673.91;5319350;26;19930;-80
2024/04/25 10:27:56;;;;;;;;;;;;;;;-146.42;100.00;66673.91;5348304;26;20373;-80
2024/04/25 10:30:22;;;;;;;;;;;;;;;-146.42;100.00;66673.91;5348176;26;20378;-79
2024/04/25 10:32:48;;;;;;;;;;;;;;;-146.42;100.00;66673.91;5348234;26;19937;-80
2024/04/25 10:35:13;;;;;;;;;;;;;;;-146.42;100.00;66673.91;5348030;26;19934;-80
2024/04/25 10:37:39;;;;;;;;;;;;;;;-146.42;100.00;66673.91;5348039;26;19930;-84
2024/04/25 10:40:07;;;;;;;;;;;;;;;-146.42;100.00;66673.91;5377178;26;19934;-80
2024/04/25 10:42:33;;;;;;;;;;;;;;;-146.42;100.00;66673.91;5347794;26;20357;-80
2024/04/25 10:44:58;;;;;;;;;;;;;;;-146.42;100.00;66673.91;5347553;26;19938;-79
2024/04/25 10:47:24;;;;;;;;;;;;;;;-146.42;100.00;66673.91;5347677;26;20000;-80
2024/04/25 10:49:49;;;;;;;;;;;;;;;-146.42;100.00;66673.91;5348214;26;19930;-80
2024/04/25 10:52:15;;;;;;;;;;;;;;;-146.42;100.00;66673.91;5348098;26;19962;-79
2024/04/25 10:54:40;;;;;;;;;;;;;;;-146.42;100.00;66673.91;5347604;26;19937;-80
2024/04/25 10:57:06;;;;;;;;;;;;;;;-146.42;100.00;66673.91;5347714;26;19930;-80
2024/04/25 10:59:31;;;;;;;;;;;;;;;-146.42;100.00;66673.91;5347748;26;19966;-81
2024/04/25 11:02:08;;;;;;;;;;;;;;;-146.42;100.00;66673.91;5348532;26;19942;-81
2024/04/25 11:04:34;;;;;;;;;;;;;;;-146.42;100.00;66673.91;5348911;26;19930;-79
2024/04/25 11:07:00;;;;;;;;;;;;;;;-146.42;100.00;66673.91;5377036;26;19930;-82
2024/04/25 11:09:28;;;;;;;;;;;;;;;-146.42;100.00;66673.91;5318279;26;19937;-80
2024/04/25 11:11:54;;;;;;;;;;;;;;;-146.42;100.00;66673.91;5377037;26;19930;-81
2024/04/25 11:14:28;;;;;;;;;;;;;;;-146.42;100.00;66673.91;5347710;26;19938;-80
2024/04/25 11:16:53;;;;;;;;;;;;;;;-146.42;100.00;66673.91;5347878;26;19942;-80
2024/04/25 11:19:19;;;;;;;;;;;;;;;-146.42;100.00;66673.91;5347439;26;20260;-79
2024/04/25 11:21:45;;;;;;;;;;;;;;;-146.42;100.00;66673.91;5318620;26;19929;-82
2024/04/25 11:24:16;;;;;;;;;;;;;;;-146.42;100.00;66673.91;5347600;26;19937;-80
2024/04/25 11:26:44;;;;;;;;;;;;;;;-146.42;100.00;66673.91;5347925;26;19938;-79
2024/04/25 11:29:10;;;;;;;;;;;;;;;-146.42;100.00;66673.91;5347497;26;19930;-79
2024/04/25 11:31:36;;;;;;;;;;;;;;;-146.42;100.00;66673.91;5376588;26;20241;-81
2024/04/25 11:34:04;;;;;;;;;;;;;;;-146.42;100.00;66673.91;5347478;26;20003;-81
2024/04/25 11:36:29;;;;;;;;;;;;;;;-146.42;100.00;66673.91;5345896;26;19938;-80
2024/04/25 11:38:55;;;;;;;;;;;;;;;-146.42;100.00;66673.91;5318250;26;19999;-80
2024/04/25 11:41:20;;;;;;;;;;;;;;;-146.42;100.00;66673.91;5376243;26;19937;-80
2024/04/25 11:43:46;;;;;;;;;;;;;;;-146.42;100.00;66673.91;5346694;26;19931;-81
2024/04/25 11:46:11;;;;;;;;;;;;;;;-146.42;100.00;66673.91;5376165;26;19942;-80
2024/04/25 11:49:00;;;;;;;;;;;;;;;-146.42;100.00;66673.91;5347069;26;20368;-80
2024/04/25 11:51:26;;;;;;;;;;;;;;;-146.42;100.00;66673.91;5349020;26;19930;-80
2024/04/25 11:53:52;;;;;;;;;;;;;;;-146.42;100.00;66673.91;5346298;26;20027;-79
2024/04/25 11:56:17;;;;;;;;;;;;;;;-146.42;100.00;66673.91;5346793;26;20388;-80
2024/04/25 11:58:43;;;;;;;;;;;;;;;-146.42;100.00;66673.91;5346904;26;19938;-79
2024/04/25 12:01:08;;;;;;;;;;;;;;;-146.42;100.00;66673.91;5347036;26;20357;-81
2024/04/25 12:03:33;;;;;;;;;;;;;;;-146.42;100.00;66673.91;5346281;26;19936;-79
2024/04/25 12:05:59;;;;;;;;;;;;;;;-146.42;100.00;66673.91;5346871;26;19936;-80
2024/04/25 12:08:25;;;;;;;;;;;;;;;-146.42;100.00;66673.91;5346260;26;20003;-82
2024/04/25 12:10:52;;;;;;;;;;;;;;;-146.42;100.00;66673.91;5346323;26;20361;-82
2024/04/25 12:13:18;;;;;;;;;;;;;;;-146.42;100.00;66673.91;5347493;26;19930;-82
2024/04/25 12:15:43;;;;;;;;;;;;;;;-146.42;100.00;66673.91;5346724;26;20287;-81
2024/04/25 12:18:09;;;;;;;;;;;;;;;-146.42;100.00;66673.91;5375271;26;19989;-80